メインページ
METAR-TAF:

METAR-TAF

空港 :

ジュノー, アラスカ州, アメリカ合衆国

ジュノー国際空港

緯度: 58-21-17N, 経度: 134-34-34W, 海抜: 6m

現時点の気象観測

当レポートは18分前の11:53(UTC)に作成
無風
気温 -2°C
湿度 100%
気圧 1005 hPa
視程: 12.9km
高度100ftの雲は散在している
散在霧

METAR: PAJN 241153Z COR 00000KT 8SM BCFG SCT001 M02/M02 A2967 RMK AO2 SLP047 BCFG E-S 4/005 60000 70014 I6001 T10221022 10022 21033 56012 $

時間: 04:11 (12:11 UTC)

予報

当レポートは47分前の11:24(UTC)に作成
予報は24日の 12時(UTC)から 25日の 12時(UTC)まで有効
変向風 3kt
視程: 10km
高度100ftの雲はほとんどない
高度15000ftの雲は散在している
近辺で霧
24日の 12時(UTC)から 24日の 15時(UTC)まで一時的に
の風 kt
視程: 4.8km
高度100ftの千切れ雲あり
24日の 1600時(UTC)から
の風 5kt
視程: 10km
高度12000ftの千切れ雲あり
25日の 0100時(UTC)から
の風 6kt
視程: 10km
高度4000ftの雲は散在している
高度8000ftの曇り
近辺でにわか雨
25日の 0300時(UTC)から
変向風 4kt
視程: 9.7km
高度2500ftの雲は散在している
高度4000ftの曇り
小雨, 雪

TAF: PAJN 241124Z 2412/2512 VRB03KT P6SM VCFG FEW001 SCT150 TEMPO 2412/2415 00000KT 3SM BR BKN001 FM241600 08005KT P6SM BKN120 FM250100 10006KT P6SM VCSH SCT040 OVC080 FM250300 VRB04KT 6SM -RASN SCT025 OVC040

4,000以上の空港の気象観測と天気予報(METAR報とTAF報)

利用可能な観測所は地図上に黄色い丸と赤い丸で示す。

丸の上にカーソルを重ねると観測所名を参照できる。

次にクリックすると気象観測と天気予報を参照できる。

マップの切り替え:黒色「×」印の緑ボタンをクリックして拡大、「-」印の緑ボタンをクリックして縮小、緑色の三角印をクリックして隣りの地図に切り替え


METAR-TAF: